Time;durP1;ratioP1;P1;durP2;ratioP2;P2;SDS_P1;SDS_P2;PMS_P1;PMS_P2;Temp;Humidity;BMP_temperature;BMP_pressure;BME280_temperature;BME280_humidity;BME280_pressure;Samples;Min_cycle;Max_cycle;Signal;HPM_P1;HPM_P2
2022/03/19 00:00:58;;;;;;;14.63;8.90;;;;;;;1.89;99.76;102668.84;5035238;28;20211;-77
2022/03/19 00:03:25;;;;;;;18.30;9.17;;;;;;;1.74;99.61;102636.78;5034706;28;20238;-75
2022/03/19 00:05:52;;;;;;;13.90;8.93;;;;;;;1.94;100.00;102666.72;5034936;28;20262;-75
2022/03/19 00:08:19;;;;;;;18.00;9.07;;;;;;;1.93;100.00;102647.00;5034650;28;20192;-74
2022/03/19 00:10:46;;;;;;;18.53;9.50;;;;;;;2.03;100.00;102657.34;5034694;28;20204;-77
2022/03/19 00:13:13;;;;;;;17.90;10.00;;;;;;;2.07;100.00;102661.94;5034647;28;20196;-76
2022/03/19 00:15:40;;;;;;;16.10;8.77;;;;;;;2.05;100.00;102658.38;5034908;28;20203;-76
2022/03/19 00:18:09;;;;;;;29.50;12.63;;;;;;;1.96;100.00;102648.19;5034010;28;20204;-73
2022/03/19 00:20:38;;;;;;;29.63;12.83;;;;;;;1.94;100.00;102652.28;5034507;28;20200;-76
2022/03/19 00:23:05;;;;;;;35.57;14.97;;;;;;;1.90;100.00;102650.19;5034411;28;20559;-77
2022/03/19 00:25:32;;;;;;;39.40;12.60;;;;;;;1.87;100.00;102654.13;5034329;28;20226;-76
2022/03/19 00:27:59;;;;;;;25.97;11.17;;;;;;;1.80;100.00;102627.13;5034885;28;20189;-74
2022/03/19 00:30:26;;;;;;;23.93;11.33;;;;;;;1.90;100.00;102646.75;5034643;28;20200;-74
2022/03/19 00:32:53;;;;;;;21.17;11.73;;;;;;;1.92;100.00;102646.13;5034388;28;20200;-75
2022/03/19 00:35:21;;;;;;;26.83;12.13;;;;;;;1.74;100.00;102623.09;5034246;28;20225;-75
2022/03/19 00:37:49;;;;;;;20.73;11.50;;;;;;;1.82;100.00;102648.59;5033614;28;20207;-77
2022/03/19 00:40:17;;;;;;;21.77;11.07;;;;;;;1.71;100.00;102640.72;5033667;28;20192;-74
2022/03/19 00:42:44;;;;;;;23.30;11.43;;;;;;;1.61;100.00;102627.84;5034403;28;20215;-74
2022/03/19 00:45:12;;;;;;;25.53;13.00;;;;;;;1.57;100.00;102642.00;5034169;28;20228;-74
2022/03/19 00:47:39;;;;;;;27.23;11.80;;;;;;;1.53;100.00;102636.50;5033309;28;20220;-74
2022/03/19 00:50:08;;;;;;;33.03;11.03;;;;;;;1.54;100.00;102631.50;5034529;28;20211;-76
2022/03/19 00:52:36;;;;;;;23.00;11.83;;;;;;;1.23;100.00;102586.00;5034154;28;20207;-74
2022/03/19 00:55:04;;;;;;;16.77;9.20;;;;;;;1.49;100.00;102643.88;5033875;28;20623;-74
2022/03/19 00:57:38;;;;;;;20.17;9.57;;;;;;;1.63;100.00;102634.00;5033662;28;20195;-75
2022/03/19 01:00:06;;;;;;;17.70;10.07;;;;;;;1.60;100.00;102639.75;5033768;28;20214;-74
2022/03/19 01:02:33;;;;;;;22.70;9.60;;;;;;;1.66;100.00;102644.53;5033822;28;20192;-74
2022/03/19 01:05:00;;;;;;;13.93;8.53;;;;;;;1.70;100.00;102644.94;5033917;28;20234;-77
2022/03/19 01:07:26;;;;;;;19.17;8.33;;;;;;;1.65;100.00;102648.72;5033649;28;20199;-75
2022/03/19 01:09:54;;;;;;;14.43;8.63;;;;;;;1.51;100.00;102626.13;5033703;28;20208;-76
2022/03/19 01:12:21;;;;;;;15.97;7.83;;;;;;;1.29;100.00;102610.47;5033490;28;20574;-74
2022/03/19 01:14:48;;;;;;;14.23;8.10;;;;;;;1.42;100.00;102626.19;5033693;28;20276;-73
2022/03/19 01:17:15;;;;;;;18.60;7.93;;;;;;;1.40;100.00;102627.69;5032444;28;20199;-73
2022/03/19 01:19:59;;;;;;;15.30;8.50;;;;;;;1.41;100.00;102636.25;5033145;28;20200;-76
2022/03/19 01:22:28;;;;;;;17.00;8.63;;;;;;;1.48;100.00;102629.31;5033096;28;20195;-77
2022/03/19 01:24:59;;;;;;;16.50;8.93;;;;;;;1.35;100.00;102608.50;5033048;28;20228;-74
2022/03/19 01:27:26;;;;;;;13.30;7.43;;;;;;;1.32;100.00;102608.19;5033375;28;20207;-73
2022/03/19 01:29:52;;;;;;;17.67;8.57;;;;;;;1.21;100.00;102597.75;5033097;28;20197;-76
2022/03/19 01:32:19;;;;;;;16.63;9.37;;;;;;;1.42;100.00;102620.19;5032880;28;20199;-75
2022/03/19 01:34:46;;;;;;;11.87;8.00;;;;;;;1.35;100.00;102603.38;5033373;28;20253;-76
2022/03/19 01:37:13;;;;;;;16.70;9.17;;;;;;;1.49;100.00;102615.78;5032916;28;20199;-78
2022/03/19 01:39:40;;;;;;;16.50;8.63;;;;;;;1.19;100.00;102578.81;5033128;28;20592;-76
2022/03/19 01:42:14;;;;;;;16.40;8.30;;;;;;;1.39;100.00;102609.69;5033090;28;20199;-77
2022/03/19 01:44:40;;;;;;;14.37;8.70;;;;;;;1.47;100.00;102617.25;5033312;28;20247;-76
2022/03/19 01:47:10;;;;;;;20.30;9.00;;;;;;;1.41;100.00;102593.72;5031489;28;20242;-76
2022/03/19 01:49:38;;;;;;;14.30;8.40;;;;;;;1.61;100.00;102622.72;5032339;28;20292;-76
2022/03/19 01:52:05;;;;;;;17.47;8.80;;;;;;;1.67;100.00;102628.44;5033416;28;20223;-73
2022/03/19 01:54:35;;;;;;;12.87;7.93;;;;;;;1.67;100.00;102620.75;5032443;28;20275;-76
2022/03/19 01:57:04;;;;;;;29.73;12.50;;;;;;;1.68;100.00;102625.09;5032834;28;20196;-75
2022/03/19 01:59:35;;;;;;;19.83;9.93;;;;;;;1.71;100.00;102620.28;5032680;28;20203;-75
2022/03/19 02:02:04;;;;;;;13.93;8.37;;;;;;;1.42;100.00;102585.28;5032822;28;20204;-75
2022/03/19 02:04:32;;;;;;;17.27;9.03;;;;;;;1.69;100.00;102621.78;5032254;28;20235;-74
2022/03/19 02:06:59;;;;;;;15.47;8.67;;;;;;;1.64;100.00;102626.47;5032971;28;20200;-74
2022/03/19 02:09:26;;;;;;;14.17;8.30;;;;;;;1.19;100.00;102551.59;5032177;28;20200;-75
2022/03/19 02:11:53;;;;;;;15.77;8.93;;;;;;;1.53;100.00;102618.59;5032543;28;20207;-74
2022/03/19 02:14:20;;;;;;;12.73;8.97;;;;;;;1.50;100.00;102619.19;5032200;28;20201;-76
2022/03/19 02:16:49;;;;;;;19.13;9.93;;;;;;;1.46;100.00;102607.78;5032115;28;20569;-75
2022/03/19 02:19:16;;;;;;;15.47;9.13;;;;;;;1.58;100.00;102615.69;5031587;28;20195;-75
2022/03/19 02:21:45;;;;;;;22.80;10.53;;;;;;;1.41;100.00;102596.25;5032016;28;20204;-74
2022/03/19 02:26:57;;;;;;;17.83;10.03;;;;;;;1.16;100.00;102553.88;5032119;28;20705;-75
2022/03/19 02:29:25;;;;;;;16.10;10.30;;;;;;;1.49;100.00;102586.75;5031801;28;20709;-75
2022/03/19 02:31:54;;;;;;;16.10;9.30;;;;;;;1.71;100.00;102622.84;5031837;28;20202;-75
2022/03/19 02:34:21;;;;;;;21.27;10.53;;;;;;;1.45;100.00;102575.34;5031825;28;20196;-76
2022/03/19 02:36:48;;;;;;;16.37;9.30;;;;;;;1.62;100.00;102604.97;5031930;28;20204;-75
2022/03/19 02:39:18;;;;;;;18.03;9.50;;;;;;;1.62;100.00;102622.88;5031872;28;20732;-75
2022/03/19 02:41:46;;;;;;;20.43;9.67;;;;;;;1.67;100.00;102626.78;5032041;28;20196;-76
2022/03/19 02:44:15;;;;;;;12.63;8.60;;;;;;;1.64;100.00;102613.69;5032174;28;20196;-75
2022/03/19 02:46:44;;;;;;;17.90;8.60;;;;;;;1.73;100.00;102623.84;5031563;28;20239;-74
2022/03/19 02:49:12;;;;;;;16.93;8.90;;;;;;;1.69;100.00;102606.44;5031196;28;20205;-76
2022/03/19 02:51:40;;;;;;;13.20;8.33;;;;;;;1.76;100.00;102629.25;5032041;28;20194;-76
2022/03/19 02:54:09;;;;;;;11.47;8.33;;;;;;;1.83;100.00;102631.59;5031682;28;20207;-75
2022/03/19 02:56:40;;;;;;;15.20;9.20;;;;;;;1.91;100.00;102630.63;5031907;28;20196;-75
2022/03/19 02:59:07;;;;;;;15.37;9.40;;;;;;;1.75;100.00;102617.25;5031941;28;20263;-76
2022/03/19 03:01:34;;;;;;;18.80;8.97;;;;;;;1.79;100.00;102637.19;5031352;28;20269;-75
2022/03/19 03:04:01;;;;;;;17.60;9.77;;;;;;;1.66;100.00;102601.94;5031523;28;20204;-75
2022/03/19 03:06:29;;;;;;;15.60;9.77;;;;;;;1.54;100.00;102588.03;5031771;28;20224;-75
2022/03/19 03:08:56;;;;;;;17.57;10.20;;;;;;;1.71;100.00;102630.50;5031832;28;20639;-75
2022/03/19 03:11:23;;;;;;;14.10;9.33;;;;;;;1.65;100.00;102623.16;5031788;28;20224;-75
2022/03/19 03:13:51;;;;;;;15.63;8.77;;;;;;;1.65;100.00;102629.94;5031560;28;20200;-75
2022/03/19 03:16:18;;;;;;;15.93;9.00;;;;;;;1.31;100.00;102590.19;5031386;28;20192;-77
2022/03/19 03:18:45;;;;;;;16.73;9.07;;;;;;;1.47;100.00;102635.16;5030990;28;20203;-74
2022/03/19 03:21:12;;;;;;;15.53;8.43;;;;;;;1.44;100.00;102627.22;5031764;28;20203;-76
2022/03/19 03:23:39;;;;;;;16.10;9.47;;;;;;;1.33;100.00;102633.00;5031621;28;20267;-74
2022/03/19 03:26:06;;;;;;;25.00;8.57;;;;;;;1.16;100.00;102625.44;5031567;28;20228;-75
2022/03/19 03:28:33;;;;;;;11.77;7.87;;;;;;;0.61;100.00;102567.41;5031614;28;20192;-75
2022/03/19 03:31:02;;;;;;;18.23;9.77;;;;;;;0.85;100.00;102629.34;5031364;28;20203;-75
2022/03/19 03:33:29;;;;;;;15.23;10.00;;;;;;;0.47;100.00;102576.28;5031565;28;20639;-75
2022/03/19 03:35:56;;;;;;;23.80;7.93;;;;;;;0.62;100.00;102622.78;5031600;28;20211;-75
2022/03/19 03:38:23;;;;;;;25.20;12.47;;;;;;;0.58;100.00;102629.25;5031296;28;20203;-75
2022/03/19 03:40:50;;;;;;;25.00;11.33;;;;;;;0.44;100.00;102625.41;5031270;28;20204;-75
2022/03/19 03:43:17;;;;;;;18.67;9.40;;;;;;;0.40;100.00;102630.94;5031451;28;20192;-75
2022/03/19 03:45:44;;;;;;;26.10;11.20;;;;;;;0.33;100.00;102636.22;5030861;28;20240;-75
2022/03/19 03:48:12;;;;;;;21.80;10.97;;;;;;;0.12;100.00;102598.44;5030325;28;20554;-76
2022/03/19 03:50:40;;;;;;;25.63;12.03;;;;;;;0.27;100.00;102620.31;5031492;28;20592;-74
2022/03/19 03:53:08;;;;;;;21.33;9.43;;;;;;;0.20;100.00;102643.44;5031164;28;20197;-76
2022/03/19 03:55:37;;;;;;;20.40;10.57;;;;;;;0.12;100.00;102634.16;5030904;28;20227;-74
2022/03/19 03:58:05;;;;;;;20.07;10.47;;;;;;;0.14;100.00;102637.75;5031312;28;20220;-75
2022/03/19 04:00:32;;;;;;;27.27;10.83;;;;;;;0.13;100.00;102646.16;5031214;28;20196;-75
2022/03/19 04:02:59;;;;;;;14.50;8.23;;;;;;;0.07;100.00;102639.56;5031083;28;20299;-75
2022/03/19 04:05:27;;;;;;;16.17;9.63;;;;;;;0.00;100.00;102622.78;5030791;28;20219;-74
2022/03/19 04:07:55;;;;;;;15.83;9.17;;;;;;;0.00;100.00;102644.03;5031304;28;20208;-75
2022/03/19 04:10:22;;;;;;;19.47;11.40;;;;;;;-0.06;100.00;102632.34;5031238;28;20578;-74
2022/03/19 04:12:48;;;;;;;22.10;11.13;;;;;;;-0.04;100.00;102636.84;5032125;28;20200;-75
2022/03/19 04:15:18;;;;;;;16.90;10.33;;;;;;;-0.01;100.00;102637.16;5034533;28;20192;-74
2022/03/19 04:17:44;;;;;;;19.47;10.50;;;;;;;0.08;100.00;102637.13;5034055;28;20221;-74
2022/03/19 04:20:13;;;;;;;17.83;11.17;;;;;;;0.05;100.00;102626.66;5034831;28;20200;-74
2022/03/19 04:22:43;;;;;;;19.47;11.03;;;;;;;0.03;100.00;102623.06;5034577;28;20254;-75
2022/03/19 04:25:15;;;;;;;18.40;10.33;;;;;;;0.08;100.00;102632.03;5034632;28;20646;-74
2022/03/19 04:27:43;;;;;;;19.53;11.10;;;;;;;0.11;100.00;102647.63;5034143;28;20238;-75
2022/03/19 04:30:12;;;;;;;19.73;10.90;;;;;;;0.05;100.00;102639.41;5034241;28;20204;-74
2022/03/19 04:32:43;;;;;;;20.53;10.33;;;;;;;0.20;100.00;102648.56;5034249;28;20199;-75
2022/03/19 04:37:56;;;;;;;18.23;9.67;;;;;;;0.25;100.00;102649.88;5034512;28;20285;-73
2022/03/19 04:40:23;;;;;;;18.27;9.40;;;;;;;0.14;100.00;102642.88;5033809;28;20224;-74
2022/03/19 04:42:50;;;;;;;18.33;9.63;;;;;;;0.16;100.00;102651.53;5034261;28;20197;-75
2022/03/19 04:45:18;;;;;;;18.17;9.53;;;;;;;0.00;100.00;102618.53;5033626;28;20207;-75
2022/03/19 04:47:45;;;;;;;21.17;9.67;;;;;;;-0.03;100.00;102615.69;5032926;28;20240;-75
2022/03/19 04:50:12;;;;;;;23.30;11.27;;;;;;;0.09;100.00;102656.81;5033778;28;20621;-75
2022/03/19 04:52:40;;;;;;;17.07;9.47;;;;;;;0.09;100.00;102654.25;5033971;28;20192;-74
2022/03/19 04:55:09;;;;;;;12.93;8.13;;;;;;;0.17;100.00;102661.00;5034215;28;20218;-78
2022/03/19 04:57:37;;;;;;;21.97;11.87;;;;;;;0.12;100.00;102663.84;5033641;28;20697;-74
2022/03/19 05:00:06;;;;;;;35.10;13.27;;;;;;;0.18;100.00;102659.38;5033683;28;20192;-74
2022/03/19 05:02:33;;;;;;;22.83;12.23;;;;;;;0.33;100.00;102654.06;5033819;28;20219;-74
2022/03/19 05:05:01;;;;;;;21.63;10.63;;;;;;;0.32;100.00;102665.03;5033903;28;20538;-76
2022/03/19 05:07:28;;;;;;;17.83;10.30;;;;;;;0.35;100.00;102667.00;5033660;28;20317;-75
2022/03/19 05:12:43;;;;;;;15.07;8.67;;;;;;;0.33;100.00;102671.03;5033363;28;20279;-73
2022/03/19 05:15:13;;;;;;;17.63;10.13;;;;;;;0.35;100.00;102670.47;5033407;28;20192;-73
2022/03/19 05:17:41;;;;;;;21.20;10.47;;;;;;;0.44;100.00;102676.44;5032413;28;20287;-76
2022/03/19 05:20:09;;;;;;;20.87;9.67;;;;;;;0.43;100.00;102654.19;5033416;28;20207;-76
2022/03/19 05:22:36;;;;;;;17.83;8.93;;;;;;;0.51;100.00;102665.16;5033365;28;20271;-74
2022/03/19 05:25:04;;;;;;;27.03;11.80;;;;;;;0.62;100.00;102663.63;5032917;28;20204;-74
2022/03/19 05:27:31;;;;;;;19.03;10.50;;;;;;;0.73;100.00;102670.66;5033220;28;20234;-76
2022/03/19 05:29:59;;;;;;;26.23;11.57;;;;;;;0.86;100.00;102671.06;5033431;28;20222;-75
2022/03/19 05:32:26;;;;;;;31.50;14.00;;;;;;;0.92;100.00;102676.78;5032871;28;20294;-75
2022/03/19 05:34:55;;;;;;;40.73;15.07;;;;;;;0.69;100.00;102627.72;5033250;28;20204;-75
2022/03/19 05:37:22;;;;;;;40.90;16.00;;;;;;;0.88;100.00;102677.25;5032900;28;20250;-75
2022/03/19 05:39:49;;;;;;;40.17;16.80;;;;;;;1.02;100.00;102676.88;5032850;28;20572;-74
2022/03/19 05:42:16;;;;;;;28.50;15.37;;;;;;;1.13;100.00;102678.81;5032848;28;20203;-73
2022/03/19 05:44:43;;;;;;;27.13;13.93;;;;;;;1.18;100.00;102680.09;5032722;28;20192;-72
2022/03/19 05:47:11;;;;;;;42.53;17.83;;;;;;;1.28;100.00;102680.25;5031490;28;20637;-74
2022/03/19 05:49:38;;;;;;;34.93;14.57;;;;;;;1.18;100.00;102692.88;5032762;28;20196;-73
2022/03/19 05:52:05;;;;;;;34.27;14.63;;;;;;;1.36;100.00;102684.38;5033044;28;20196;-72
2022/03/19 05:54:32;;;;;;;27.57;12.80;;;;;;;1.10;100.00;102665.75;5032535;28;20287;-74
2022/03/19 05:56:59;;;;;;;21.03;10.50;;;;;;;1.13;100.00;102676.25;5032826;28;20211;-74
2022/03/19 05:59:26;;;;;;;19.20;10.23;;;;;;;1.15;100.00;102674.72;5032778;28;20605;-73
2022/03/19 06:01:53;;;;;;;19.40;10.20;;;;;;;1.34;100.00;102683.34;5032503;28;20203;-76
2022/03/19 06:04:21;;;;;;;15.50;9.33;;;;;;;1.24;100.00;102649.13;5032569;28;20211;-75
2022/03/19 06:06:48;;;;;;;22.90;10.83;;;;;;;1.39;100.00;102694.91;5032524;28;20231;-73
2022/03/19 06:09:15;;;;;;;18.93;10.23;;;;;;;1.47;100.00;102686.28;5032762;28;20638;-73
2022/03/19 06:11:43;;;;;;;24.33;11.40;;;;;;;1.63;100.00;102697.94;5032439;28;20196;-74
2022/03/19 06:14:10;;;;;;;18.83;9.53;;;;;;;1.56;100.00;102698.13;5032495;28;20681;-73
2022/03/19 06:16:37;;;;;;;38.23;13.73;;;;;;;1.57;100.00;102705.06;5031779;28;20626;-73
2022/03/19 06:19:03;;;;;;;20.80;9.97;;;;;;;1.59;100.00;102695.84;5031593;28;20196;-74
2022/03/19 06:21:31;;;;;;;21.30;9.70;;;;;;;1.11;100.00;102636.88;5032172;28;20196;-73
2022/03/19 06:23:58;;;;;;;22.17;11.03;;;;;;;1.64;100.00;102700.63;5031980;28;20208;-73
2022/03/19 06:26:25;;;;;;;17.73;10.23;;;;;;;1.66;100.00;102703.34;5031861;28;20223;-74
2022/03/19 06:28:52;;;;;;;17.50;9.43;;;;;;;1.39;100.00;102656.56;5031986;28;20300;-72
2022/03/19 06:31:19;;;;;;;20.03;9.53;;;;;;;1.71;100.00;102712.34;5031829;28;20654;-73
2022/03/19 06:33:46;;;;;;;17.43;10.10;;;;;;;1.62;100.00;102711.47;5031767;28;20215;-73
2022/03/19 06:38:59;;;;;;;19.33;12.17;;;;;;;1.91;100.00;102712.50;5031969;28;20200;-73
2022/03/19 06:41:26;;;;;;;16.80;7.87;;;;;;;1.97;100.00;102713.06;5031772;28;20200;-75
2022/03/19 06:43:53;;;;;;;12.53;7.10;;;;;;;1.87;100.00;102711.31;5032050;28;20208;-74
2022/03/19 06:46:20;;;;;;;14.77;7.53;;;;;;;1.85;100.00;102696.59;5031568;28;20231;-77
2022/03/19 06:48:49;;;;;;;12.23;7.20;;;;;;;1.75;99.45;102714.44;5030985;28;20203;-73
2022/03/19 06:51:16;;;;;;;15.27;8.43;;;;;;;1.71;97.91;102691.88;5031944;28;20204;-73
2022/03/19 06:53:42;;;;;;;7.57;4.63;;;;;;;1.80;100.00;102662.03;5031543;28;20635;-73
2022/03/19 06:56:10;;;;;;;14.17;7.70;;;;;;;2.27;87.67;102723.53;5031896;28;20196;-72
2022/03/19 06:58:38;;;;;;;17.67;9.07;;;;;;;2.31;86.52;102723.03;5031664;28;20590;-73
2022/03/19 07:01:05;;;;;;;16.10;8.20;;;;;;;2.32;87.24;102727.38;5031889;28;20200;-73
2022/03/19 07:03:32;;;;;;;12.53;7.87;;;;;;;2.46;88.38;102734.63;5031573;28;20189;-72
2022/03/19 07:05:59;;;;;;;10.33;7.17;;;;;;;2.35;86.94;102737.00;5032090;28;20582;-73
2022/03/19 07:08:26;;;;;;;11.10;7.27;;;;;;;2.53;88.25;102730.09;5031789;28;20261;-73
2022/03/19 07:10:53;;;;;;;12.40;8.43;;;;;;;2.51;89.88;102737.63;5031917;28;20192;-72
2022/03/19 07:13:21;;;;;;;9.20;6.03;;;;;;;2.42;87.39;102716.31;5031871;28;20295;-73
2022/03/19 07:15:48;;;;;;;11.97;6.40;;;;;;;2.49;78.82;102734.03;5031464;28;20192;-73
2022/03/19 07:18:15;;;;;;;9.07;4.87;;;;;;;2.43;70.55;102729.25;5031083;28;20228;-74
2022/03/19 07:20:42;;;;;;;6.83;5.30;;;;;;;2.33;71.08;102706.16;5031344;28;20196;-74
2022/03/19 07:23:08;;;;;;;17.13;5.93;;;;;;;2.80;69.01;102729.97;5031496;28;20212;-75
2022/03/19 07:25:37;;;;;;;7.00;3.60;;;;;;;2.54;65.41;102716.50;5031538;28;20199;-73
2022/03/19 07:28:06;;;;;;;7.53;5.03;;;;;;;2.71;65.22;102731.72;5031708;28;20228;-74
2022/03/19 07:30:34;;;;;;;15.63;5.27;;;;;;;2.72;64.91;102734.41;5031563;28;20250;-73
2022/03/19 07:33:01;;;;;;;4.70;3.97;;;;;;;2.66;62.60;102740.66;5031580;28;20203;-75
2022/03/19 07:35:28;;;;;;;6.03;5.00;;;;;;;2.85;62.37;102741.53;5031448;28;20587;-74
2022/03/19 07:37:57;;;;;;;6.13;4.07;;;;;;;2.91;62.85;102717.34;5031618;28;20196;-74
2022/03/19 07:43:11;;;;;;;9.50;4.73;;;;;;;2.99;62.68;102720.56;5031469;28;20222;-73
2022/03/19 07:45:41;;;;;;;3.93;3.47;;;;;;;3.12;60.16;102743.94;5030895;28;20779;-72
2022/03/19 07:48:09;;;;;;;8.23;4.53;;;;;;;3.15;59.05;102744.19;5032301;28;20266;-72
2022/03/19 07:50:38;;;;;;;4.40;3.37;;;;;;;3.12;58.96;102743.03;5035302;28;20200;-72
2022/03/19 07:53:06;;;;;;;11.37;4.83;;;;;;;3.33;58.98;102739.75;5035649;28;20192;-77
2022/03/19 07:55:33;;;;;;;12.23;3.30;;;;;;;3.24;59.40;102742.44;5035008;28;20196;-71
2022/03/19 07:58:00;;;;;;;8.00;5.57;;;;;;;3.07;59.50;102741.75;5034937;28;20207;-73
2022/03/19 08:00:27;;;;;;;9.47;5.23;;;;;;;3.26;58.72;102738.34;5034875;28;20633;-73
2022/03/19 08:02:55;;;;;;;6.47;4.00;;;;;;;3.40;57.23;102753.25;5034848;28;20200;-74
2022/03/19 08:05:22;;;;;;;4.23;3.60;;;;;;;3.07;56.76;102747.75;5035026;28;20203;-73
2022/03/19 08:07:51;;;;;;;6.80;4.47;;;;;;;3.26;57.41;102740.00;5034541;28;20601;-72
2022/03/19 08:10:19;;;;;;;5.00;2.50;;;;;;;3.24;56.57;102755.25;5035019;28;20239;-72
2022/03/19 08:12:47;;;;;;;3.33;3.10;;;;;;;3.30;55.71;102745.53;5034680;28;20666;-75
2022/03/19 08:15:14;;;;;;;4.70;3.53;;;;;;;3.40;55.81;102745.56;5035320;28;20713;-75
2022/03/19 08:17:42;;;;;;;3.40;3.13;;;;;;;3.58;56.39;102755.59;5033546;28;20697;-75
2022/03/19 08:20:12;;;;;;;6.30;3.40;;;;;;;3.57;55.50;102751.25;5034872;28;20227;-76
2022/03/19 08:22:39;;;;;;;6.77;3.87;;;;;;;3.36;55.23;102751.19;5034694;28;20192;-75
2022/03/19 08:25:07;;;;;;;5.13;4.00;;;;;;;3.48;55.71;102736.84;5034912;28;20220;-76
2022/03/19 08:27:34;;;;;;;4.27;3.83;;;;;;;3.44;55.55;102723.63;5034560;28;20803;-75
2022/03/19 08:30:03;;;;;;;6.60;2.73;;;;;;;3.46;54.83;102743.50;5034609;28;20192;-74
2022/03/19 08:32:31;;;;;;;5.23;4.00;;;;;;;3.55;54.39;102734.81;5034673;28;20207;-76
2022/03/19 08:34:57;;;;;;;7.97;4.70;;;;;;;3.62;55.07;102729.44;5034608;28;20199;-77
2022/03/19 08:37:26;;;;;;;7.43;4.30;;;;;;;3.74;54.13;102748.44;5034310;28;20200;-73
2022/03/19 08:42:38;;;;;;;6.57;4.47;;;;;;;3.49;54.79;102743.78;5034036;28;20704;-75
2022/03/19 08:45:06;;;;;;;5.67;3.00;;;;;;;3.43;54.40;102737.22;5034081;28;20600;-76
2022/03/19 08:47:33;;;;;;;6.47;4.67;;;;;;;3.92;56.76;102742.31;5032726;28;20251;-74
2022/03/19 08:50:00;;;;;;;5.53;4.27;;;;;;;3.98;54.49;102738.56;5034325;28;20282;-74
2022/03/19 08:52:28;;;;;;;3.97;3.30;;;;;;;3.62;54.00;102747.38;5034211;28;20193;-74
2022/03/19 08:54:55;;;;;;;7.07;4.37;;;;;;;4.07;53.29;102741.00;5034235;28;20219;-75
2022/03/19 08:57:22;;;;;;;5.77;4.13;;;;;;;4.11;52.78;102744.72;5033788;28;20196;-76
2022/03/19 08:59:49;;;;;;;3.80;2.97;;;;;;;4.04;52.77;102743.31;5033131;28;20215;-77
2022/03/19 09:02:17;;;;;;;3.90;3.57;;;;;;;4.11;53.23;102742.16;5034230;28;20196;-75
2022/03/19 09:04:47;;;;;;;8.57;4.53;;;;;;;4.37;52.22;102735.84;5034264;28;20192;-76
2022/03/19 09:07:14;;;;;;;7.63;5.07;;;;;;;4.73;52.68;102721.63;5033990;28;20290;-76
2022/03/19 09:09:42;;;;;;;12.90;7.70;;;;;;;4.99;52.14;102673.19;5033750;28;20219;-75
2022/03/19 09:12:10;;;;;;;8.77;6.17;;;;;;;5.50;50.94;102740.63;5033627;28;20200;-74
2022/03/19 09:14:37;;;;;;;9.47;4.70;;;;;;;5.55;50.38;102741.00;5033617;28;20230;-73
2022/03/19 09:17:08;;;;;;;9.87;4.33;;;;;;;4.76;51.40;102720.19;5033560;28;20617;-76
2022/03/19 09:19:35;;;;;;;6.70;5.40;;;;;;;4.53;51.56;102709.72;5032818;28;20275;-76
2022/03/19 09:22:02;;;;;;;10.93;5.33;;;;;;;4.75;52.46;102745.75;5033693;28;20258;-72
2022/03/19 09:24:28;;;;;;;5.73;4.33;;;;;;;4.65;52.17;102738.06;5033605;28;20253;-73
2022/03/19 09:26:57;;;;;;;9.10;6.30;;;;;;;4.86;52.07;102748.41;5033135;28;20231;-73
2022/03/19 09:29:24;;;;;;;6.73;5.43;;;;;;;4.88;51.21;102746.00;5033176;28;20203;-73
2022/03/19 09:31:51;;;;;;;12.80;6.43;;;;;;;5.01;51.76;102746.19;5033141;28;20189;-72
2022/03/19 09:34:18;;;;;;;4.93;4.10;;;;;;;4.78;52.03;102684.34;5033053;28;20200;-76
2022/03/19 09:36:46;;;;;;;14.60;7.07;;;;;;;4.42;53.15;102721.69;5033010;28;20613;-74
2022/03/19 09:39:14;;;;;;;8.17;5.27;;;;;;;4.30;53.01;102733.53;5033055;28;20670;-74
2022/03/19 09:41:43;;;;;;;9.00;5.90;;;;;;;3.63;53.24;102664.53;5033230;28;20228;-75
2022/03/19 09:44:12;;;;;;;10.30;4.77;;;;;;;4.01;52.77;102743.06;5032882;28;20353;-74
2022/03/19 09:46:41;;;;;;;11.30;6.70;;;;;;;4.12;53.44;102743.94;5032557;28;20235;-72
2022/03/19 09:49:09;;;;;;;16.50;7.50;;;;;;;4.69;53.36;102740.13;5032024;28;20684;-72
2022/03/19 09:51:39;;;;;;;10.67;6.23;;;;;;;4.97;51.68;102745.03;5032983;28;20202;-74
2022/03/19 09:54:06;;;;;;;18.97;5.83;;;;;;;4.81;54.21;102736.88;5032709;28;20705;-72
2022/03/19 09:56:34;;;;;;;11.93;7.43;;;;;;;4.37;52.03;102675.88;5032879;28;20203;-73
2022/03/19 09:59:01;;;;;;;13.77;7.37;;;;;;;4.48;52.75;102723.88;5032982;28;20223;-74
2022/03/19 10:01:31;;;;;;;15.80;7.80;;;;;;;4.98;54.86;102702.22;5032621;28;20204;-76
2022/03/19 10:04:02;;;;;;;5.80;4.60;;;;;;;5.14;51.93;102723.22;5032536;28;20247;-73
2022/03/19 10:09:19;;;;;;;6.17;4.57;;;;;;;5.16;51.65;102723.34;5032546;28;20689;-73
2022/03/19 10:11:50;;;;;;;8.23;4.10;;;;;;;4.86;50.62;102733.00;5032485;28;20200;-73
2022/03/19 10:14:21;;;;;;;9.37;6.60;;;;;;;4.83;51.61;102722.47;5032847;28;20275;-74
2022/03/19 10:16:52;;;;;;;14.37;6.40;;;;;;;5.04;50.84;102712.09;5032319;28;20697;-75
2022/03/19 10:19:19;;;;;;;12.17;6.13;;;;;;;5.26;49.68;102720.72;5031835;28;20596;-72
2022/03/19 10:21:46;;;;;;;10.30;5.90;;;;;;;5.23;50.34;102720.50;5032172;28;20192;-76
2022/03/19 10:24:24;;;;;;;8.77;3.23;;;;;;;4.67;50.40;102726.28;5032450;28;20204;-74
2022/03/19 10:26:51;;;;;;;5.83;3.47;;;;;;;4.43;49.85;102718.34;5032455;28;20196;-73
2022/03/19 10:29:28;;;;;;;4.10;3.33;;;;;;;4.44;49.48;102721.81;5032258;28;20196;-74
2022/03/19 10:32:00;;;;;;;7.87;4.73;;;;;;;4.89;49.26;102704.06;5032216;28;20204;-73
2022/03/19 10:34:27;;;;;;;8.67;6.07;;;;;;;5.10;49.24;102698.03;5032346;28;20214;-76
2022/03/19 10:36:53;;;;;;;6.33;5.43;;;;;;;4.77;50.62;102700.53;5032254;28;20219;-76
2022/03/19 10:39:22;;;;;;;5.27;3.83;;;;;;;4.52;49.49;102697.66;5032146;28;20594;-76
2022/03/19 10:41:49;;;;;;;5.00;4.50;;;;;;;4.63;49.44;102665.13;5032152;28;20196;-73
2022/03/19 10:44:20;;;;;;;6.53;3.07;;;;;;;4.09;48.15;102623.94;5032041;28;20200;-77
2022/03/19 10:46:49;;;;;;;3.83;3.43;;;;;;;4.64;49.42;102701.19;5031438;28;20235;-73
2022/03/19 10:49:19;;;;;;;5.83;4.80;;;;;;;4.79;50.25;102693.81;5031059;28;20629;-75
2022/03/19 10:51:47;;;;;;;8.40;5.20;;;;;;;4.90;50.11;102693.00;5032063;28;20330;-74
2022/03/19 10:54:15;;;;;;;3.50;3.20;;;;;;;5.06;48.66;102693.47;5032212;28;20215;-75
2022/03/19 10:56:42;;;;;;;4.67;3.63;;;;;;;4.95;47.87;102689.16;5032056;28;20216;-75
2022/03/19 10:59:09;;;;;;;8.30;4.47;;;;;;;4.93;48.49;102686.44;5031638;28;20242;-75
2022/03/19 11:01:36;;;;;;;10.33;5.80;;;;;;;5.32;47.67;102687.75;5031795;28;20641;-76
2022/03/19 11:04:06;;;;;;;7.07;4.13;;;;;;;5.13;47.52;102679.41;5031811;28;20591;-74
2022/03/19 11:06:37;;;;;;;7.07;4.80;;;;;;;5.08;48.66;102676.47;5032124;28;20312;-74
2022/03/19 11:09:06;;;;;;;2.93;2.73;;;;;;;5.07;48.47;102679.81;5031539;28;20236;-76
2022/03/19 11:11:41;;;;;;;4.40;3.70;;;;;;;5.03;49.25;102669.19;5031466;28;20250;-76
2022/03/19 11:14:11;;;;;;;3.43;2.90;;;;;;;4.53;49.40;102649.75;5031750;28;20234;-76
2022/03/19 11:16:40;;;;;;;4.20;3.03;;;;;;;5.22;47.88;102670.72;5031453;28;20265;-76
2022/03/19 11:19:09;;;;;;;2.00;1.90;;;;;;;5.07;46.33;102669.53;5030718;28;20208;-76
2022/03/19 11:21:38;;;;;;;7.27;4.13;;;;;;;5.09;48.18;102673.13;5031203;28;20701;-80
2022/03/19 11:24:11;;;;;;;7.93;3.57;;;;;;;4.93;47.88;102670.09;5035065;28;20192;-75
2022/03/19 11:26:38;;;;;;;4.07;3.17;;;;;;;4.96;48.04;102675.50;5035504;28;20203;-77
2022/03/19 11:29:07;;;;;;;2.90;2.70;;;;;;;4.63;47.84;102596.66;5036010;28;20227;-77
2022/03/19 11:31:34;;;;;;;5.53;3.87;;;;;;;5.24;47.49;102664.03;5035688;28;20196;-76
2022/03/19 11:34:14;;;;;;;5.77;3.70;;;;;;;5.41;46.58;102657.63;5035716;28;20200;-76
2022/03/19 11:36:56;;;;;;;7.40;3.63;;;;;;;5.29;46.58;102649.84;5035133;28;20192;-76
2022/03/19 11:39:23;;;;;;;2.97;2.77;;;;;;;5.04;46.51;102583.53;5035318;28;20658;-77
2022/03/19 11:41:51;;;;;;;3.00;2.80;;;;;;;4.94;46.96;102612.78;5035692;28;20199;-77
2022/03/19 11:44:19;;;;;;;7.00;3.47;;;;;;;4.79;47.48;102657.84;5035438;28;20211;-76